Seabrook, New Jersey
Current Conditions -  °F | °C
As of 1:54 PM on Wednesday 26 Nov 2014 (Local Time) from KMIV Reporting Station
Light Rain Light Rain  
Wind Chill: 29°   Ceiling: 700
Heat Index: 38°   Visibility: 9mi
Dew Point: 35°   Wind: 15mph
Humidity: 89%   Direction: 20°NNE
Pressure: 29.81"   Gusts: 24mph
Location:  39.4433°N, 75.2554°W
Report Text: KMIV 261854Z AUTO 02013G21KT 9SM -RA BKN007 BKN049 OVC070 03/02 A2981 RMK AO2 SLP094 P0011 T00330017
Loading
Personal Weather Stations






























Interactive Weather Map New forecast layout! Learn more

10-Day Weather Forecast

Advertisements
Track Severe Weather on mobile